Westchester County Airport
KHPN : now visible

Airfield :











YOU CAN JOIN US ON...

 
LOGIN :

Register | Disclaimer

   EN    FR    IT 

 









Legend :    VFR   Marginal VFR   IFR   Intensive IFR   Very Intensive IFR
Visi :
Ceiling :
>= 8 km
>= 3000ft
5 to 8 km
1000 to 3000 ft
1500m to 5 km
500 to 1000 ft
800 to 1500m
200 to 500 ft
< 800m
< 200 ft
Symbols :   Thunderstorms  Fog  Heavy snow  Heavy precipitations  Wind > 20 kt






- Airport Elevation : 439 ft
- IATA code : HPN


KHPN - Westchester County

CURRENT METAR :
  • 072056Z 18016KT 10SM FEW080 16/M01 A2976 RMK AO2 SLP077 T01561011 56029

EXPIRED METARs :
  • 071956Z 22007G16KT 170V250 10SM FEW080 17/M02 A2977 RMK AO2 SLP081 T01721017
  • 071856Z VRB05G14KT 10SM FEW080 17/M02 A2980 RMK AO2 SLP092 T01721022

TAF KHPN
Valid from the 07 at 20:00 until the 08 at 18:00 UTC


071931Z 0720/0818 VRB06KT P6SM SCT080
FM072200 22008KT P6SM SCT080
FM072300 19009G15KT P6SM SCT080
FM080000 18006KT P6SM BKN080
FM080800 VRB04KT 5SM -RA BR OVC020
FM081300 02005KT P6SM BKN024 AMD NOT SKED



MET'MAP, your aeronautical weather chart ! - Copyright ORBIFLY December 2007 - Disclaimer

ORBIFLY MET'MAP TEAM :

Programming & Development : Alexandra Zaïnal
Concept & original design : Baudouin d'Aumeries
Assistance for programming : Marc-Olivier Méhu
Technical & hardware support : Manuel Goepfert

Contact : metmap@orbifly.com




SOURCES & CREDITS :

   NOAA       Earth
Advisory